Latest Weather Observations for Fawkner Beacon

IDV60801

Issued at 9:02 pm EDT Tuesday 6 December 2016 (issued every 30 minutes, with the page automatically refreshed every 10 minutes)

About weather observations | Map of weather stations | Latest weather observations for VIC | Other Formats
Station Details ID: 086376 Name: FAWKNER BEACON Lat: -37.91 Lon: 144.93 Height: 17.0 m
Data from the previous 72 hours. | See also: Recent months for locations in Victoria
Date/Time
EDT
Temp
°C
App
Temp
°C
Dew
Point
°C
Rel
Hum
%
Delta-T
°C
Wind Press
QNH
hPa
Press
MSL
hPa
Rain since
9am
mm
Dir  Spd
km/h
Gust
km/h
Spd
kts
Gust
kts
06/09:00pm - - - - - SSE 26 28 14 15 - - -
06/08:30pm - - - - - S 28 33 15 18 - - -
06/08:00pm - - - - - S 32 35 17 19 - - -
06/07:30pm - - - - - S 33 39 18 21 - - -
06/07:00pm - - - - - S 33 41 18 22 - - -
06/06:30pm - - - - - S 32 35 17 19 - - -
06/06:00pm - - - - - S 30 35 16 19 - - -
06/05:30pm - - - - - S 30 33 16 18 - - -
06/05:00pm - - - - - S 26 30 14 16 - - -
06/04:30pm - - - - - S 22 26 12 14 - - -
06/04:00pm - - - - - SSE 24 30 13 16 - - -
06/03:30pm - - - - - SSE 20 24 11 13 - - -
06/03:00pm - - - - - SE 19 22 10 12 - - -
06/02:30pm - - - - - SE 20 24 11 13 - - -
06/02:00pm - - - - - SSE 19 22 10 12 - - -
06/01:30pm - - - - - SSE 13 17 7 9 - - -
06/01:00pm - - - - - S 13 17 7 9 - - -
06/12:30pm - - - - - S 17 20 9 11 - - -
06/12:00pm - - - - - SSW 15 20 8 11 - - -
06/11:30am - - - - - SSW 7 11 4 6 - - -
06/11:00am - - - - - S 11 15 6 8 - - -
06/10:30am - - - - - S 9 15 5 8 - - -
06/10:00am - - - - - SSW 17 22 9 12 - - -
06/09:30am - - - - - S 11 13 6 7 - - -
06/09:00am - - - - - S 9 13 5 7 - - -
06/08:30am - - - - - S 11 17 6 9 - - -
06/08:00am - - - - - SSW 11 17 6 9 - - -
06/07:30am - - - - - SSE 9 11 5 6 - - -
06/07:00am - - - - - SSE 9 13 5 7 - - -
06/06:30am - - - - - SSW 9 13 5 7 - - -
06/06:00am - - - - - SSW 7 11 4 6 - - -
06/05:30am - - - - - SSW 7 11 4 6 - - -
06/05:00am - - - - - S 7 11 4 6 - - -
06/04:30am - - - - - S 7 9 4 5 - - -
06/04:00am - - - - - S 11 17 6 9 - - -
06/03:30am - - - - - SE 13 17 7 9 - - -
06/03:00am - - - - - SSE 13 20 7 11 - - -
06/02:30am - - - - - SSE 17 22 9 12 - - -
06/02:00am - - - - - SE 17 22 9 12 - - -
06/01:30am - - - - - SSE 13 20 7 11 - - -
06/01:00am - - - - - SSE 15 20 8 11 - - -
06/12:30am - - - - - SE 17 22 9 12 - - -
06/12:00am - - - - - SE 20 24 11 13 - - -
 
Date/Time
EDT
Temp
°C
App
Temp
°C
Dew
Point
°C
Rel
Hum
%
Delta-T
°C
Wind Press
QNH
hPa
Press
MSL
hPa
Rain since
9am
mm
Dir  Spd
km/h
Gust
km/h
Spd
kts
Gust
kts
05/11:30pm - - - - - SE 22 28 12 15 - - -
05/11:00pm - - - - - SE 17 22 9 12 - - -
05/10:30pm - - - - - SE 17 22 9 12 - - -
05/10:00pm - - - - - SSE 17 22 9 12 - - -
05/09:30pm - - - - - SE 20 24 11 13 - - -
05/09:00pm - - - - - SSE 24 28 13 15 - - -
05/08:30pm - - - - - SSE 28 32 15 17 - - -
05/08:00pm - - - - - SSE 30 35 16 19 - - -
05/07:30pm - - - - - S 32 35 17 19 - - -
05/07:00pm - - - - - S 33 41 18 22 - - -
05/06:30pm - - - - - S 37 43 20 23 - - -
05/06:00pm - - - - - S 37 43 20 23 - - -
05/05:30pm - - - - - S 33 39 18 21 - - -
05/05:00pm - - - - - S 35 41 19 22 - - -
05/04:30pm - - - - - S 28 32 15 17 - - -
05/04:00pm - - - - - S 28 32 15 17 - - -
05/03:30pm - - - - - SSE 26 30 14 16 - - -
05/03:00pm - - - - - SSE 28 32 15 17 - - -
05/02:30pm - - - - - SSE 26 30 14 16 - - -
05/02:00pm - - - - - SSE 26 30 14 16 - - -
05/01:30pm - - - - - SSE 26 30 14 16 - - -
05/01:00pm - - - - - SSE 26 28 14 15 - - -
05/12:30pm - - - - - SSE 19 24 10 13 - - -
05/12:00pm - - - - - S 17 24 9 13 - - -
05/11:30am - - - - - SW 19 24 10 13 - - -
05/11:00am - - - - - WSW 24 28 13 15 - - -
05/10:30am - - - - - WSW 28 32 15 17 - - -
05/10:00am - - - - - WSW 28 33 15 18 - - -
05/09:30am - - - - - WSW 30 33 16 18 - - -
05/09:00am - - - - - WSW 32 39 17 21 - - -
05/08:30am - - - - - WSW 32 35 17 19 - - -
05/08:00am - - - - - WSW 30 33 16 18 - - -
05/07:30am - - - - - WSW 32 39 17 21 - - -
05/07:00am - - - - - WSW 35 43 19 23 - - -
05/06:30am - - - - - WSW 39 44 21 24 - - -
05/06:00am - - - - - WSW 44 52 24 28 - - -
05/05:30am - - - - - WSW 44 54 24 29 - - -
05/05:17am - - - - - NW 24 48 13 26 - - -
05/05:00am - - - - - NNW 26 28 14 15 - - -
05/04:30am - - - - - NNW 32 35 17 19 - - -
05/04:00am - - - - - NNW 33 43 18 23 - - -
05/03:30am - - - - - NNW 33 43 18 23 - - -
05/03:00am - - - - - N 37 44 20 24 - - -
05/02:30am - - - - - N 30 39 16 21 - - -
05/02:00am - - - - - N 41 50 22 27 - - -
05/01:30am - - - - - N 44 52 24 28 - - -
05/01:00am - - - - - N 50 61 27 33 - - -
05/12:43am - - - - - N 46 65 25 35 - - -
05/12:30am - - - - - N 43 52 23 28 - - -
05/12:00am - - - - - N 43 48 23 26 - - -
 
Date/Time
EDT
Temp
°C
App
Temp
°C
Dew
Point
°C
Rel
Hum
%
Delta-T
°C
Wind Press
QNH
hPa
Press
MSL
hPa
Rain since
9am
mm
Dir  Spd
km/h
Gust
km/h
Spd
kts
Gust
kts
04/11:30pm - - - - - N 35 43 19 23 - - -
04/11:00pm - - - - - N 24 33 13 18 - - -
04/10:30pm - - - - - N 28 33 15 18 - - -
04/10:00pm - - - - - NNE 26 28 14 15 - - -
04/09:30pm - - - - - NNE 30 33 16 18 - - -
04/09:00pm - - - - - NNE 26 30 14 16 - - -
04/08:30pm - - - - - N 26 30 14 16 - - -
04/08:00pm - - - - - N 15 22 8 12 - - -
04/07:30pm - - - - - NNW 13 17 7 9 - - -
04/07:00pm - - - - - WNW 30 32 16 17 - - -
04/06:30pm - - - - - WNW 48 59 26 32 - - -
04/06:00pm - - - - - WNW 56 72 30 39 - - -
04/05:44pm - - - - - NNW 48 70 26 38 - - -
04/05:41pm - - - - - NNW 43 70 23 38 - - -
04/05:30pm - - - - - N 37 50 20 27 - - -
04/05:26pm - - - - - N 30 50 16 27 - - -
04/05:21pm - - - - - NE 15 44 8 24 - - -
04/05:00pm - - - - - E 7 9 4 5 - - -
04/04:30pm - - - - - NNE 9 11 5 6 - - -
04/04:00pm - - - - - N 13 15 7 8 - - -
04/03:30pm - - - - - N 20 24 11 13 - - -
04/03:00pm - - - - - N 30 35 16 19 - - -
04/02:30pm - - - - - N 32 35 17 19 - - -
04/02:00pm - - - - - N 37 44 20 24 - - -
04/01:30pm - - - - - N 32 35 17 19 - - -
04/01:00pm - - - - - N 28 33 15 18 - - -
04/12:30pm - - - - - N 39 44 21 24 - - -
04/12:00pm - - - - - N 39 46 21 25 - - -
04/11:38am - - - - - N 17 41 9 22 - - -
04/11:30am - - - - - NNE 7 15 4 8 - - -
04/11:00am - - - - - ESE 17 20 9 11 - - -
04/10:30am - - - - - ESE 17 20 9 11 - - -
04/10:00am - - - - - ESE 15 17 8 9 - - -
04/09:30am - - - - - ESE 11 13 6 7 - - -
04/09:00am - - - - - ENE 7 9 4 5 - - -
04/08:30am - - - - - NE 9 11 5 6 - - -
04/08:00am - - - - - NE 9 11 5 6 - - -
04/07:30am - - - - - NE 9 11 5 6 - - -
04/07:00am - - - - - NNE 11 13 6 7 - - -
04/06:30am - - - - - NNE 11 13 6 7 - - -
04/06:00am - - - - - N 11 13 6 7 - - -
04/05:30am - - - - - N 11 13 6 7 - - -
04/05:00am - - - - - N 11 13 6 7 - - -
04/04:30am - - - - - NNW 9 13 5 7 - - -
04/04:00am - - - - - N 13 15 7 8 - - -
04/03:30am - - - - - NNW 11 13 6 7 - - -
04/03:00am - - - - - ENE 9 11 5 6 - - -
04/02:30am - - - - - ENE 9 11 5 6 - - -
04/02:00am - - - - - ENE 9 11 5 6 - - -
04/01:30am - - - - - ENE 11 15 6 8 - - -
04/01:00am - - - - - ENE 11 13 6 7 - - -
04/12:30am - - - - - E 17 20 9 11 - - -
04/12:00am - - - - - E 22 26 12 14 - - -
 
Date/Time
EDT
Temp
°C
App
Temp
°C
Dew
Point
°C
Rel
Hum
%
Delta-T
°C
Wind Press
QNH
hPa
Press
MSL
hPa
Rain since
9am
mm
Dir  Spd
km/h
Gust
km/h
Spd
kts
Gust
kts
03/11:30pm - - - - - ESE 22 28 12 15 - - -
03/11:00pm - - - - - SE 24 28 13 15 - - -
03/10:30pm - - - - - ESE 32 39 17 21 - - -
03/10:00pm - - - - - ESE 32 35 17 19 - - -
03/09:30pm - - - - - ESE 30 35 16 19 - - -

Other Formats:

Comma delimited format used in spreadsheet applications
http://www.bom.gov.au/fwo/IDV60801/IDV60801.95872.axf

JavaScript Object Notation format (JSON) in row-major order
http://www.bom.gov.au/fwo/IDV60801/IDV60801.95872.json